Lochearnhead, United Kingdom
Current Conditions -  °F | °C
As of 7:50 AM on Thursday 23 Oct 2014 (Local Time) from EGPF Reporting Station
Light Rain Light Rain  
Wind Chill: 12°   Ceiling: 900
Heat Index: 12°   Visibility: 4mi
Dew Point: 11°   Wind: 18mph
Humidity: 94%   Direction: 220°SW
Pressure: 29.8"   Gusts: NA
Location:  56.39°N, 4.29°W
Report Text: EGPF 230650Z AUTO 22016KT 6000 -RA BKN009/// OVC028/// //////TCU 12/11 Q1009
Loading
Personal Weather Stations






























Interactive Weather Map
Tropical Storm Tracking
New forecast layout! Learn more

10-Day Weather Forecast

Advertisements
Track Severe Weather on mobile